sensor_id;sensor_type;location;lat;lon;timestamp;temperature;humidity
22532;DHT22;11432;46.924;7.114;2023-01-28T00:01:12;0.20;99.90
22532;DHT22;11432;46.924;7.114;2023-01-28T00:03:38;0.20;99.90
22532;DHT22;11432;46.924;7.114;2023-01-28T00:06:07;0.20;99.90
22532;DHT22;11432;46.924;7.114;2023-01-28T00:08:33;0.20;99.90
22532;DHT22;11432;46.924;7.114;2023-01-28T00:10:59;0.20;99.90
22532;DHT22;11432;46.924;7.114;2023-01-28T00:13:25;0.20;99.90
22532;DHT22;11432;46.924;7.114;2023-01-28T00:16:09;0.20;99.90
22532;DHT22;11432;46.924;7.114;2023-01-28T00:18:35;0.20;99.90
22532;DHT22;11432;46.924;7.114;2023-01-28T00:21:10;0.20;99.90
22532;DHT22;11432;46.924;7.114;2023-01-28T00:23:38;0.20;99.90
22532;DHT22;11432;46.924;7.114;2023-01-28T00:26:10;0.20;99.90
22532;DHT22;11432;46.924;7.114;2023-01-28T00:28:36;0.20;1.00
22532;DHT22;11432;46.924;7.114;2023-01-28T00:31:10;0.20;99.90
22532;DHT22;11432;46.924;7.114;2023-01-28T00:33:37;0.20;99.90
22532;DHT22;11432;46.924;7.114;2023-01-28T00:36:05;0.20;99.90
22532;DHT22;11432;46.924;7.114;2023-01-28T00:38:31;0.20;1.00
22532;DHT22;11432;46.924;7.114;2023-01-28T00:41:18;0.20;99.90
22532;DHT22;11432;46.924;7.114;2023-01-28T00:43:47;0.20;1.00
22532;DHT22;11432;46.924;7.114;2023-01-28T00:46:13;0.20;1.00
22532;DHT22;11432;46.924;7.114;2023-01-28T00:48:39;0.20;99.90
22532;DHT22;11432;46.924;7.114;2023-01-28T00:51:07;0.20;1.00
22532;DHT22;11432;46.924;7.114;2023-01-28T00:53:33;0.20;61.00
22532;DHT22;11432;46.924;7.114;2023-01-28T00:56:00;0.20;99.90
22532;DHT22;11432;46.924;7.114;2023-01-28T00:58:26;0.20;99.90
22532;DHT22;11432;46.924;7.114;2023-01-28T01:00:52;0.20;1.00
22532;DHT22;11432;46.924;7.114;2023-01-28T01:03:18;0.20;99.90
22532;DHT22;11432;46.924;7.114;2023-01-28T01:05:44;0.20;99.90
22532;DHT22;11432;46.924;7.114;2023-01-28T01:08:09;0.20;99.90
22532;DHT22;11432;46.924;7.114;2023-01-28T01:10:36;0.20;1.00
22532;DHT22;11432;46.924;7.114;2023-01-28T01:13:04;0.20;72.40
22532;DHT22;11432;46.924;7.114;2023-01-28T01:15:29;0.20;1.00
22532;DHT22;11432;46.924;7.114;2023-01-28T01:17:56;0.20;1.00
22532;DHT22;11432;46.924;7.114;2023-01-28T01:20:27;0.20;1.00
22532;DHT22;11432;46.924;7.114;2023-01-28T01:22:55;0.20;1.00
22532;DHT22;11432;46.924;7.114;2023-01-28T01:25:21;0.20;91.40
22532;DHT22;11432;46.924;7.114;2023-01-28T01:27:48;0.20;57.00
22532;DHT22;11432;46.924;7.114;2023-01-28T01:30:14;0.10;48.00
22532;DHT22;11432;46.924;7.114;2023-01-28T01:32:40;0.20;1.00
22532;DHT22;11432;46.924;7.114;2023-01-28T01:35:07;0.20;1.00
22532;DHT22;11432;46.924;7.114;2023-01-28T01:37:34;0.10;1.00
22532;DHT22;11432;46.924;7.114;2023-01-28T01:40:01;0.10;1.00
22532;DHT22;11432;46.924;7.114;2023-01-28T01:42:30;0.10;1.00
22532;DHT22;11432;46.924;7.114;2023-01-28T01:45:12;0.10;1.00
22532;DHT22;11432;46.924;7.114;2023-01-28T01:47:57;0.20;1.50
22532;DHT22;11432;46.924;7.114;2023-01-28T01:52:58;0.10;99.90
22532;DHT22;11432;46.924;7.114;2023-01-28T01:55:26;0.10;99.90
22532;DHT22;11432;46.924;7.114;2023-01-28T01:57:55;0.20;99.90
22532;DHT22;11432;46.924;7.114;2023-01-28T02:00:23;0.10;99.90
22532;DHT22;11432;46.924;7.114;2023-01-28T02:02:49;0.10;99.90
22532;DHT22;11432;46.924;7.114;2023-01-28T02:05:18;0.10;99.90
22532;DHT22;11432;46.924;7.114;2023-01-28T02:07:46;0.10;99.90
22532;DHT22;11432;46.924;7.114;2023-01-28T02:10:13;0.10;99.90
22532;DHT22;11432;46.924;7.114;2023-01-28T02:12:42;0.10;99.90
22532;DHT22;11432;46.924;7.114;2023-01-28T02:15:16;0.10;99.90
22532;DHT22;11432;46.924;7.114;2023-01-28T02:17:43;0.10;1.00
22532;DHT22;11432;46.924;7.114;2023-01-28T02:20:18;0.10;1.00
22532;DHT22;11432;46.924;7.114;2023-01-28T02:37:03;0.00;1.00
22532;DHT22;11432;46.924;7.114;2023-01-28T02:39:39;0.00;1.00
22532;DHT22;11432;46.924;7.114;2023-01-28T02:42:13;0.00;1.00
22532;DHT22;11432;46.924;7.114;2023-01-28T02:44:41;0.00;1.00
22532;DHT22;11432;46.924;7.114;2023-01-28T02:47:13;0.00;99.90
22532;DHT22;11432;46.924;7.114;2023-01-28T02:50:01;0.00;99.90
22532;DHT22;11432;46.924;7.114;2023-01-28T02:52:55;0.00;99.90
22532;DHT22;11432;46.924;7.114;2023-01-28T02:58:58;0.10;99.90
22532;DHT22;11432;46.924;7.114;2023-01-28T03:01:37;0.00;99.90
22532;DHT22;11432;46.924;7.114;2023-01-28T03:04:21;0.10;99.90
22532;DHT22;11432;46.924;7.114;2023-01-28T03:06:53;0.00;99.90
22532;DHT22;11432;46.924;7.114;2023-01-28T03:09:21;0.00;99.90
22532;DHT22;11432;46.924;7.114;2023-01-28T03:12:27;0.00;99.90
22532;DHT22;11432;46.924;7.114;2023-01-28T03:15:19;0.00;99.90
22532;DHT22;11432;46.924;7.114;2023-01-28T03:18:24;0.00;99.90
22532;DHT22;11432;46.924;7.114;2023-01-28T03:21:14;0.00;99.90
22532;DHT22;11432;46.924;7.114;2023-01-28T03:24:04;0.00;99.90
22532;DHT22;11432;46.924;7.114;2023-01-28T03:26:55;0.00;99.90
22532;DHT22;11432;46.924;7.114;2023-01-28T03:29:43;0.10;99.90
22532;DHT22;11432;46.924;7.114;2023-01-28T03:32:28;0.00;99.90
22532;DHT22;11432;46.924;7.114;2023-01-28T03:35:15;0.00;99.90
22532;DHT22;11432;46.924;7.114;2023-01-28T03:38:02;0.10;99.90
22532;DHT22;11432;46.924;7.114;2023-01-28T03:40:57;0.10;99.90
22532;DHT22;11432;46.924;7.114;2023-01-28T03:43:24;0.00;99.90
22532;DHT22;11432;46.924;7.114;2023-01-28T03:45:50;0.00;1.00
22532;DHT22;11432;46.924;7.114;2023-01-28T03:48:17;0.00;99.90
22532;DHT22;11432;46.924;7.114;2023-01-28T03:50:43;0.00;1.00
22532;DHT22;11432;46.924;7.114;2023-01-28T03:53:09;0.00;1.00
22532;DHT22;11432;46.924;7.114;2023-01-28T03:55:38;0.00;99.90
22532;DHT22;11432;46.924;7.114;2023-01-28T03:58:04;0.00;1.00
22532;DHT22;11432;46.924;7.114;2023-01-28T04:00:33;0.00;1.00
22532;DHT22;11432;46.924;7.114;2023-01-28T04:03:05;0.00;1.00
22532;DHT22;11432;46.924;7.114;2023-01-28T04:06:13;0.00;1.00
22532;DHT22;11432;46.924;7.114;2023-01-28T04:08:32;0.00;1.00
22532;DHT22;11432;46.924;7.114;2023-01-28T04:10:58;0.00;1.00
22532;DHT22;11432;46.924;7.114;2023-01-28T04:13:40;0.00;1.00
22532;DHT22;11432;46.924;7.114;2023-01-28T04:16:06;0.00;1.00
22532;DHT22;11432;46.924;7.114;2023-01-28T04:18:33;0.00;99.90
22532;DHT22;11432;46.924;7.114;2023-01-28T04:20:58;0.00;99.90
22532;DHT22;11432;46.924;7.114;2023-01-28T04:23:24;0.00;73.90
22532;DHT22;11432;46.924;7.114;2023-01-28T04:25:50;0.00;99.90
22532;DHT22;11432;46.924;7.114;2023-01-28T04:28:16;0.00;99.90
22532;DHT22;11432;46.924;7.114;2023-01-28T04:30:41;0.00;1.00
22532;DHT22;11432;46.924;7.114;2023-01-28T04:33:07;0.00;1.00
22532;DHT22;11432;46.924;7.114;2023-01-28T04:35:33;0.00;1.00
22532;DHT22;11432;46.924;7.114;2023-01-28T04:37:58;0.00;83.60
22532;DHT22;11432;46.924;7.114;2023-01-28T04:40:24;0.10;1.00
22532;DHT22;11432;46.924;7.114;2023-01-28T04:42:56;0.10;1.00
22532;DHT22;11432;46.924;7.114;2023-01-28T04:45:22;0.10;1.00
22532;DHT22;11432;46.924;7.114;2023-01-28T04:47:48;0.10;1.00
22532;DHT22;11432;46.924;7.114;2023-01-28T04:50:14;0.10;1.00
22532;DHT22;11432;46.924;7.114;2023-01-28T04:52:40;0.10;1.00
22532;DHT22;11432;46.924;7.114;2023-01-28T04:55:06;0.10;1.00
22532;DHT22;11432;46.924;7.114;2023-01-28T04:57:31;0.10;1.00
22532;DHT22;11432;46.924;7.114;2023-01-28T04:59:57;0.10;1.00
22532;DHT22;11432;46.924;7.114;2023-01-28T05:02:22;0.10;1.00
22532;DHT22;11432;46.924;7.114;2023-01-28T05:04:48;0.10;1.00
22532;DHT22;11432;46.924;7.114;2023-01-28T05:07:14;0.10;1.00
22532;DHT22;11432;46.924;7.114;2023-01-28T05:09:39;0.10;1.00
22532;DHT22;11432;46.924;7.114;2023-01-28T05:12:05;0.10;1.00
22532;DHT22;11432;46.924;7.114;2023-01-28T05:14:31;0.10;1.00
22532;DHT22;11432;46.924;7.114;2023-01-28T05:16:56;0.10;1.00
22532;DHT22;11432;46.924;7.114;2023-01-28T05:19:22;0.10;1.00
22532;DHT22;11432;46.924;7.114;2023-01-28T05:21:47;0.10;1.00
22532;DHT22;11432;46.924;7.114;2023-01-28T05:24:13;0.00;1.00
22532;DHT22;11432;46.924;7.114;2023-01-28T05:26:40;0.10;1.00
22532;DHT22;11432;46.924;7.114;2023-01-28T05:29:06;0.00;1.00
22532;DHT22;11432;46.924;7.114;2023-01-28T05:31:32;0.00;1.00
22532;DHT22;11432;46.924;7.114;2023-01-28T05:33:57;0.10;1.00
22532;DHT22;11432;46.924;7.114;2023-01-28T05:36:23;0.10;1.00
22532;DHT22;11432;46.924;7.114;2023-01-28T05:38:48;0.10;1.00
22532;DHT22;11432;46.924;7.114;2023-01-28T05:41:14;0.10;1.00
22532;DHT22;11432;46.924;7.114;2023-01-28T05:43:40;0.10;1.00
22532;DHT22;11432;46.924;7.114;2023-01-28T05:46:06;0.10;1.00
22532;DHT22;11432;46.924;7.114;2023-01-28T05:48:31;0.10;1.00
22532;DHT22;11432;46.924;7.114;2023-01-28T05:50:57;0.10;1.00
22532;DHT22;11432;46.924;7.114;2023-01-28T05:53:22;0.10;1.00
22532;DHT22;11432;46.924;7.114;2023-01-28T05:55:49;0.10;1.00
22532;DHT22;11432;46.924;7.114;2023-01-28T05:58:16;0.10;1.00
22532;DHT22;11432;46.924;7.114;2023-01-28T06:00:42;0.10;1.00
22532;DHT22;11432;46.924;7.114;2023-01-28T06:03:07;0.10;1.00
22532;DHT22;11432;46.924;7.114;2023-01-28T06:05:33;0.10;1.00
22532;DHT22;11432;46.924;7.114;2023-01-28T06:07:59;0.10;1.00
22532;DHT22;11432;46.924;7.114;2023-01-28T06:10:24;0.10;1.00
22532;DHT22;11432;46.924;7.114;2023-01-28T06:12:50;0.10;1.00
22532;DHT22;11432;46.924;7.114;2023-01-28T06:15:15;0.10;1.00
22532;DHT22;11432;46.924;7.114;2023-01-28T06:17:41;0.10;1.00
22532;DHT22;11432;46.924;7.114;2023-01-28T06:20:07;0.10;1.00
22532;DHT22;11432;46.924;7.114;2023-01-28T06:22:33;0.10;1.00
22532;DHT22;11432;46.924;7.114;2023-01-28T06:24:59;0.10;36.50
22532;DHT22;11432;46.924;7.114;2023-01-28T06:27:24;0.10;4.30
22532;DHT22;11432;46.924;7.114;2023-01-28T06:29:50;0.10;20.80
22532;DHT22;11432;46.924;7.114;2023-01-28T06:32:15;0.10;1.00
22532;DHT22;11432;46.924;7.114;2023-01-28T06:34:41;0.10;1.00
22532;DHT22;11432;46.924;7.114;2023-01-28T06:37:07;0.10;1.00
22532;DHT22;11432;46.924;7.114;2023-01-28T06:39:32;0.10;1.00
22532;DHT22;11432;46.924;7.114;2023-01-28T06:41:58;0.10;1.00
22532;DHT22;11432;46.924;7.114;2023-01-28T06:44:24;0.10;99.90
22532;DHT22;11432;46.924;7.114;2023-01-28T06:46:50;0.10;99.90
22532;DHT22;11432;46.924;7.114;2023-01-28T06:49:16;0.10;50.20
22532;DHT22;11432;46.924;7.114;2023-01-28T06:51:41;0.10;99.90
22532;DHT22;11432;46.924;7.114;2023-01-28T06:54:07;0.10;99.90
22532;DHT22;11432;46.924;7.114;2023-01-28T06:56:33;0.10;64.40
22532;DHT22;11432;46.924;7.114;2023-01-28T06:58:58;0.10;99.90
22532;DHT22;11432;46.924;7.114;2023-01-28T07:01:24;0.10;99.90
22532;DHT22;11432;46.924;7.114;2023-01-28T07:03:50;0.10;99.90
22532;DHT22;11432;46.924;7.114;2023-01-28T07:06:15;0.10;99.90
22532;DHT22;11432;46.924;7.114;2023-01-28T07:08:41;0.00;1.00
22532;DHT22;11432;46.924;7.114;2023-01-28T07:11:06;0.10;1.00
22532;DHT22;11432;46.924;7.114;2023-01-28T07:13:32;0.10;1.00
22532;DHT22;11432;46.924;7.114;2023-01-28T07:15:58;0.10;1.00
22532;DHT22;11432;46.924;7.114;2023-01-28T07:18:23;0.00;1.00
22532;DHT22;11432;46.924;7.114;2023-01-28T07:20:49;0.00;1.00
22532;DHT22;11432;46.924;7.114;2023-01-28T07:23:15;0.00;1.00
22532;DHT22;11432;46.924;7.114;2023-01-28T07:25:40;0.00;1.00
22532;DHT22;11432;46.924;7.114;2023-01-28T07:28:06;0.00;1.00
22532;DHT22;11432;46.924;7.114;2023-01-28T07:30:32;0.10;1.00
22532;DHT22;11432;46.924;7.114;2023-01-28T07:32:58;0.10;1.00
22532;DHT22;11432;46.924;7.114;2023-01-28T07:35:24;0.10;1.00
22532;DHT22;11432;46.924;7.114;2023-01-28T07:37:55;0.10;1.00
22532;DHT22;11432;46.924;7.114;2023-01-28T07:40:21;0.10;99.90
22532;DHT22;11432;46.924;7.114;2023-01-28T07:42:47;0.20;1.00
22532;DHT22;11432;46.924;7.114;2023-01-28T07:45:13;0.10;99.90
22532;DHT22;11432;46.924;7.114;2023-01-28T07:47:39;0.20;99.90
22532;DHT22;11432;46.924;7.114;2023-01-28T07:50:04;0.20;99.90
22532;DHT22;11432;46.924;7.114;2023-01-28T07:52:30;0.20;46.30
22532;DHT22;11432;46.924;7.114;2023-01-28T07:54:56;0.20;99.90
22532;DHT22;11432;46.924;7.114;2023-01-28T07:57:21;0.20;99.90
22532;DHT22;11432;46.924;7.114;2023-01-28T07:59:49;0.20;99.90
22532;DHT22;11432;46.924;7.114;2023-01-28T08:02:16;0.20;1.00
22532;DHT22;11432;46.924;7.114;2023-01-28T08:04:42;0.20;1.00
22532;DHT22;11432;46.924;7.114;2023-01-28T08:07:08;0.20;78.60
22532;DHT22;11432;46.924;7.114;2023-01-28T08:09:33;0.20;99.90
22532;DHT22;11432;46.924;7.114;2023-01-28T08:12:03;0.20;1.00
22532;DHT22;11432;46.924;7.114;2023-01-28T08:14:28;0.30;1.00
22532;DHT22;11432;46.924;7.114;2023-01-28T08:16:54;0.30;1.00
22532;DHT22;11432;46.924;7.114;2023-01-28T08:19:19;0.30;1.00
22532;DHT22;11432;46.924;7.114;2023-01-28T08:21:49;0.30;1.00
22532;DHT22;11432;46.924;7.114;2023-01-28T08:24:16;0.30;1.00
22532;DHT22;11432;46.924;7.114;2023-01-28T08:26:41;0.40;1.00
22532;DHT22;11432;46.924;7.114;2023-01-28T08:29:07;0.40;1.00
22532;DHT22;11432;46.924;7.114;2023-01-28T08:31:33;0.40;1.00
22532;DHT22;11432;46.924;7.114;2023-01-28T08:33:59;0.40;1.00
22532;DHT22;11432;46.924;7.114;2023-01-28T08:36:24;0.40;1.00
22532;DHT22;11432;46.924;7.114;2023-01-28T08:38:51;0.40;1.00
22532;DHT22;11432;46.924;7.114;2023-01-28T08:41:21;0.40;1.00
22532;DHT22;11432;46.924;7.114;2023-01-28T08:43:48;0.50;99.90
22532;DHT22;11432;46.924;7.114;2023-01-28T08:46:14;0.60;99.90
22532;DHT22;11432;46.924;7.114;2023-01-28T08:48:40;0.50;99.90
22532;DHT22;11432;46.924;7.114;2023-01-28T08:51:05;0.50;1.00
22532;DHT22;11432;46.924;7.114;2023-01-28T08:53:31;0.40;1.00
22532;DHT22;11432;46.924;7.114;2023-01-28T08:55:56;0.50;1.00
22532;DHT22;11432;46.924;7.114;2023-01-28T08:58:22;0.50;1.00
22532;DHT22;11432;46.924;7.114;2023-01-28T09:00:48;0.50;1.00
22532;DHT22;11432;46.924;7.114;2023-01-28T09:03:14;0.50;1.00
22532;DHT22;11432;46.924;7.114;2023-01-28T09:05:40;0.50;1.00
22532;DHT22;11432;46.924;7.114;2023-01-28T09:08:16;0.50;1.00
22532;DHT22;11432;46.924;7.114;2023-01-28T09:10:42;0.50;99.90
22532;DHT22;11432;46.924;7.114;2023-01-28T09:13:10;0.50;1.00
22532;DHT22;11432;46.924;7.114;2023-01-28T09:15:37;0.50;1.00
22532;DHT22;11432;46.924;7.114;2023-01-28T09:18:03;0.50;1.00
22532;DHT22;11432;46.924;7.114;2023-01-28T09:20:29;0.50;1.00
22532;DHT22;11432;46.924;7.114;2023-01-28T09:22:54;0.60;1.00
22532;DHT22;11432;46.924;7.114;2023-01-28T09:25:20;0.60;1.00
22532;DHT22;11432;46.924;7.114;2023-01-28T09:27:46;0.60;99.90
22532;DHT22;11432;46.924;7.114;2023-01-28T09:30:11;0.60;99.90
22532;DHT22;11432;46.924;7.114;2023-01-28T09:32:38;0.60;99.90
22532;DHT22;11432;46.924;7.114;2023-01-28T09:35:03;0.60;99.90
22532;DHT22;11432;46.924;7.114;2023-01-28T09:37:29;0.70;99.90
22532;DHT22;11432;46.924;7.114;2023-01-28T09:39:55;0.70;99.90
22532;DHT22;11432;46.924;7.114;2023-01-28T09:49:35;0.80;1.00
22532;DHT22;11432;46.924;7.114;2023-01-28T09:52:02;0.80;99.90
22532;DHT22;11432;46.924;7.114;2023-01-28T09:54:37;0.90;99.90
22532;DHT22;11432;46.924;7.114;2023-01-28T09:57:12;0.90;99.90
22532;DHT22;11432;46.924;7.114;2023-01-28T09:59:38;0.90;99.90
22532;DHT22;11432;46.924;7.114;2023-01-28T10:05:15;1.00;1.00
22532;DHT22;11432;46.924;7.114;2023-01-28T10:11:23;1.10;99.90
22532;DHT22;11432;46.924;7.114;2023-01-28T10:19:13;1.10;1.00
22532;DHT22;11432;46.924;7.114;2023-01-28T10:21:53;1.10;1.00
22532;DHT22;11432;46.924;7.114;2023-01-28T10:24:24;1.10;1.00
22532;DHT22;11432;46.924;7.114;2023-01-28T10:26:53;1.20;99.90
22532;DHT22;11432;46.924;7.114;2023-01-28T10:29:23;1.10;1.00
22532;DHT22;11432;46.924;7.114;2023-01-28T10:34:47;1.10;99.90
22532;DHT22;11432;46.924;7.114;2023-01-28T10:37:14;1.00;1.00
22532;DHT22;11432;46.924;7.114;2023-01-28T10:39:40;1.00;99.90
22532;DHT22;11432;46.924;7.114;2023-01-28T10:44:56;1.00;99.90
22532;DHT22;11432;46.924;7.114;2023-01-28T10:47:37;1.10;99.90
22532;DHT22;11432;46.924;7.114;2023-01-28T10:50:09;1.10;1.00
22532;DHT22;11432;46.924;7.114;2023-01-28T10:52:49;1.10;99.90
22532;DHT22;11432;46.924;7.114;2023-01-28T10:55:14;1.10;99.90
22532;DHT22;11432;46.924;7.114;2023-01-28T10:57:41;1.10;99.90
22532;DHT22;11432;46.924;7.114;2023-01-28T11:02:47;1.00;1.00
22532;DHT22;11432;46.924;7.114;2023-01-28T11:05:19;1.00;99.90
22532;DHT22;11432;46.924;7.114;2023-01-28T11:07:46;1.00;1.00
22532;DHT22;11432;46.924;7.114;2023-01-28T11:10:31;1.10;99.90
22532;DHT22;11432;46.924;7.114;2023-01-28T11:12:59;1.10;1.00
22532;DHT22;11432;46.924;7.114;2023-01-28T11:15:26;1.20;1.00
22532;DHT22;11432;46.924;7.114;2023-01-28T11:17:58;1.10;1.00
22532;DHT22;11432;46.924;7.114;2023-01-28T11:20:26;1.10;1.00
22532;DHT22;11432;46.924;7.114;2023-01-28T11:22:53;1.20;1.00
22532;DHT22;11432;46.924;7.114;2023-01-28T11:25:35;1.20;1.00
22532;DHT22;11432;46.924;7.114;2023-01-28T11:28:13;1.10;1.00
22532;DHT22;11432;46.924;7.114;2023-01-28T11:30:40;1.20;1.00
22532;DHT22;11432;46.924;7.114;2023-01-28T11:33:23;1.20;1.00
22532;DHT22;11432;46.924;7.114;2023-01-28T11:35:57;1.20;1.00
22532;DHT22;11432;46.924;7.114;2023-01-28T11:38:28;1.20;1.00
22532;DHT22;11432;46.924;7.114;2023-01-28T11:40:55;1.20;1.00
22532;DHT22;11432;46.924;7.114;2023-01-28T11:43:23;1.10;1.00
22532;DHT22;11432;46.924;7.114;2023-01-28T11:51:39;1.10;1.00
22532;DHT22;11432;46.924;7.114;2023-01-28T11:56:51;1.10;1.00
22532;DHT22;11432;46.924;7.114;2023-01-28T12:07:45;1.10;1.00
22532;DHT22;11432;46.924;7.114;2023-01-28T12:10:58;1.10;1.00
22532;DHT22;11432;46.924;7.114;2023-01-28T12:13:59;1.10;1.00
22532;DHT22;11432;46.924;7.114;2023-01-28T12:17:02;1.20;1.00
22532;DHT22;11432;46.924;7.114;2023-01-28T12:19:36;1.10;1.00
22532;DHT22;11432;46.924;7.114;2023-01-28T12:22:10;1.10;1.00
22532;DHT22;11432;46.924;7.114;2023-01-28T12:25:02;1.20;1.00
22532;DHT22;11432;46.924;7.114;2023-01-28T12:41:43;1.10;1.00
22532;DHT22;11432;46.924;7.114;2023-01-28T12:44:19;1.10;1.00
22532;DHT22;11432;46.924;7.114;2023-01-28T12:46:49;1.10;1.00
22532;DHT22;11432;46.924;7.114;2023-01-28T12:52:35;1.10;1.00
22532;DHT22;11432;46.924;7.114;2023-01-28T12:57:44;1.10;1.00
22532;DHT22;11432;46.924;7.114;2023-01-28T13:00:33;1.10;1.00
22532;DHT22;11432;46.924;7.114;2023-01-28T13:05:50;1.10;1.00
22532;DHT22;11432;46.924;7.114;2023-01-28T13:08:24;1.00;1.00
22532;DHT22;11432;46.924;7.114;2023-01-28T13:10:50;1.00;1.00
22532;DHT22;11432;46.924;7.114;2023-01-28T13:13:35;1.10;1.00
22532;DHT22;11432;46.924;7.114;2023-01-28T13:16:03;1.10;1.00
22532;DHT22;11432;46.924;7.114;2023-01-28T13:21:05;1.10;1.00
22532;DHT22;11432;46.924;7.114;2023-01-28T13:23:45;1.10;1.00
22532;DHT22;11432;46.924;7.114;2023-01-28T13:28:43;1.10;1.00
22532;DHT22;11432;46.924;7.114;2023-01-28T13:31:11;1.20;1.00
22532;DHT22;11432;46.924;7.114;2023-01-28T13:39:20;1.20;6.10
22532;DHT22;11432;46.924;7.114;2023-01-28T13:41:48;1.20;1.00
22532;DHT22;11432;46.924;7.114;2023-01-28T13:49:42;1.30;1.00
22532;DHT22;11432;46.924;7.114;2023-01-28T13:52:31;1.30;1.00
22532;DHT22;11432;46.924;7.114;2023-01-28T13:55:15;1.30;1.00
22532;DHT22;11432;46.924;7.114;2023-01-28T13:58:16;1.30;1.00
22532;DHT22;11432;46.924;7.114;2023-01-28T14:07:12;1.30;1.00
22532;DHT22;11432;46.924;7.114;2023-01-28T14:10:00;1.30;1.00
22532;DHT22;11432;46.924;7.114;2023-01-28T14:15:45;1.30;1.00
22532;DHT22;11432;46.924;7.114;2023-01-28T14:18:24;1.20;1.00
22532;DHT22;11432;46.924;7.114;2023-01-28T14:20:52;1.30;1.00
22532;DHT22;11432;46.924;7.114;2023-01-28T14:23:20;1.20;1.00
22532;DHT22;11432;46.924;7.114;2023-01-28T14:31:37;1.30;1.00
22532;DHT22;11432;46.924;7.114;2023-01-28T14:34:20;1.30;1.00
22532;DHT22;11432;46.924;7.114;2023-01-28T14:36:48;1.20;1.00
22532;DHT22;11432;46.924;7.114;2023-01-28T14:39:17;1.30;1.00
22532;DHT22;11432;46.924;7.114;2023-01-28T14:41:44;1.30;1.00
22532;DHT22;11432;46.924;7.114;2023-01-28T14:49:35;1.30;1.00
22532;DHT22;11432;46.924;7.114;2023-01-28T14:57:45;1.30;1.00
22532;DHT22;11432;46.924;7.114;2023-01-28T15:00:28;1.30;1.00
22532;DHT22;11432;46.924;7.114;2023-01-28T15:02:55;1.30;1.00
22532;DHT22;11432;46.924;7.114;2023-01-28T15:05:23;1.30;1.00
22532;DHT22;11432;46.924;7.114;2023-01-28T15:07:49;1.30;1.00
22532;DHT22;11432;46.924;7.114;2023-01-28T15:10:23;1.20;1.00
22532;DHT22;11432;46.924;7.114;2023-01-28T15:12:57;1.30;1.00
22532;DHT22;11432;46.924;7.114;2023-01-28T15:15:32;1.30;1.00
22532;DHT22;11432;46.924;7.114;2023-01-28T15:18:18;1.30;1.00
22532;DHT22;11432;46.924;7.114;2023-01-28T15:20:47;1.20;1.00
22532;DHT22;11432;46.924;7.114;2023-01-28T15:23:16;1.20;1.00
22532;DHT22;11432;46.924;7.114;2023-01-28T15:25:42;1.20;1.00
22532;DHT22;11432;46.924;7.114;2023-01-28T15:28:16;1.20;1.00
22532;DHT22;11432;46.924;7.114;2023-01-28T15:30:47;1.20;1.00
22532;DHT22;11432;46.924;7.114;2023-01-28T15:33:14;1.20;1.00
22532;DHT22;11432;46.924;7.114;2023-01-28T15:35:49;1.20;1.00
22532;DHT22;11432;46.924;7.114;2023-01-28T15:38:15;1.20;1.00
22532;DHT22;11432;46.924;7.114;2023-01-28T15:40:48;1.20;1.00
22532;DHT22;11432;46.924;7.114;2023-01-28T15:43:23;1.20;1.00
22532;DHT22;11432;46.924;7.114;2023-01-28T15:45:52;1.20;1.00
22532;DHT22;11432;46.924;7.114;2023-01-28T15:48:21;1.20;1.00
22532;DHT22;11432;46.924;7.114;2023-01-28T15:50:48;1.20;1.00
22532;DHT22;11432;46.924;7.114;2023-01-28T15:53:22;1.20;99.90
22532;DHT22;11432;46.924;7.114;2023-01-28T15:55:48;1.20;99.90
22532;DHT22;11432;46.924;7.114;2023-01-28T16:00:46;1.10;99.90
22532;DHT22;11432;46.924;7.114;2023-01-28T16:03:19;1.10;99.90
22532;DHT22;11432;46.924;7.114;2023-01-28T16:06:03;1.10;99.90
22532;DHT22;11432;46.924;7.114;2023-01-28T16:08:38;1.10;99.90
22532;DHT22;11432;46.924;7.114;2023-01-28T16:11:06;1.10;99.90
22532;DHT22;11432;46.924;7.114;2023-01-28T16:13:32;1.10;5.90
22532;DHT22;11432;46.924;7.114;2023-01-28T16:15:59;1.10;1.00
22532;DHT22;11432;46.924;7.114;2023-01-28T16:21:19;1.10;1.00
22532;DHT22;11432;46.924;7.114;2023-01-28T16:23:59;1.10;99.90
22532;DHT22;11432;46.924;7.114;2023-01-28T16:26:27;1.10;99.90
22532;DHT22;11432;46.924;7.114;2023-01-28T16:28:53;1.10;99.90
22532;DHT22;11432;46.924;7.114;2023-01-28T16:31:19;1.10;99.90
22532;DHT22;11432;46.924;7.114;2023-01-28T16:33:45;1.00;99.90
22532;DHT22;11432;46.924;7.114;2023-01-28T16:36:13;1.00;7.70
22532;DHT22;11432;46.924;7.114;2023-01-28T16:38:39;1.00;1.00
22532;DHT22;11432;46.924;7.114;2023-01-28T16:41:11;1.00;1.00
22532;DHT22;11432;46.924;7.114;2023-01-28T16:43:37;1.00;54.60
22532;DHT22;11432;46.924;7.114;2023-01-28T16:46:03;1.00;90.60
22532;DHT22;11432;46.924;7.114;2023-01-28T16:48:29;1.00;38.70
22532;DHT22;11432;46.924;7.114;2023-01-28T16:50:55;1.20;99.90
22532;DHT22;11432;46.924;7.114;2023-01-28T16:53:27;1.10;1.00
22532;DHT22;11432;46.924;7.114;2023-01-28T16:56:18;1.00;99.90
22532;DHT22;11432;46.924;7.114;2023-01-28T16:58:45;1.00;99.90
22532;DHT22;11432;46.924;7.114;2023-01-28T17:01:11;1.00;99.90
22532;DHT22;11432;46.924;7.114;2023-01-28T17:03:37;1.00;99.90
22532;DHT22;11432;46.924;7.114;2023-01-28T17:06:03;1.00;99.90
22532;DHT22;11432;46.924;7.114;2023-01-28T17:08:29;1.00;99.90
22532;DHT22;11432;46.924;7.114;2023-01-28T17:10:55;1.00;99.90
22532;DHT22;11432;46.924;7.114;2023-01-28T17:13:21;1.00;99.90
22532;DHT22;11432;46.924;7.114;2023-01-28T17:15:47;1.00;99.90
22532;DHT22;11432;46.924;7.114;2023-01-28T17:18:12;1.00;99.90
22532;DHT22;11432;46.924;7.114;2023-01-28T17:20:38;1.00;99.90
22532;DHT22;11432;46.924;7.114;2023-01-28T17:23:13;1.00;99.90
22532;DHT22;11432;46.924;7.114;2023-01-28T17:25:39;1.00;99.90
22532;DHT22;11432;46.924;7.114;2023-01-28T17:28:06;1.00;99.90
22532;DHT22;11432;46.924;7.114;2023-01-28T17:30:32;1.00;99.90
22532;DHT22;11432;46.924;7.114;2023-01-28T17:32:58;1.00;99.90
22532;DHT22;11432;46.924;7.114;2023-01-28T17:35:24;1.00;99.90
22532;DHT22;11432;46.924;7.114;2023-01-28T17:37:53;1.00;99.90
22532;DHT22;11432;46.924;7.114;2023-01-28T17:40:19;1.00;1.00
22532;DHT22;11432;46.924;7.114;2023-01-28T17:42:45;1.00;99.90
22532;DHT22;11432;46.924;7.114;2023-01-28T17:45:10;1.00;99.90
22532;DHT22;11432;46.924;7.114;2023-01-28T17:47:36;1.00;1.00
22532;DHT22;11432;46.924;7.114;2023-01-28T17:50:02;1.00;1.00
22532;DHT22;11432;46.924;7.114;2023-01-28T17:52:28;1.00;1.00
22532;DHT22;11432;46.924;7.114;2023-01-28T17:54:54;1.00;1.00
22532;DHT22;11432;46.924;7.114;2023-01-28T17:57:20;1.00;1.00
22532;DHT22;11432;46.924;7.114;2023-01-28T17:59:46;1.00;99.90
22532;DHT22;11432;46.924;7.114;2023-01-28T18:02:12;1.00;1.00
22532;DHT22;11432;46.924;7.114;2023-01-28T18:04:39;1.00;1.00
22532;DHT22;11432;46.924;7.114;2023-01-28T18:07:05;1.00;99.90
22532;DHT22;11432;46.924;7.114;2023-01-28T18:09:36;1.00;1.00
22532;DHT22;11432;46.924;7.114;2023-01-28T18:12:02;1.00;1.00
22532;DHT22;11432;46.924;7.114;2023-01-28T18:14:28;1.00;1.00
22532;DHT22;11432;46.924;7.114;2023-01-28T18:16:53;1.00;1.00
22532;DHT22;11432;46.924;7.114;2023-01-28T18:19:19;1.00;1.00
22532;DHT22;11432;46.924;7.114;2023-01-28T18:21:44;1.00;99.90
22532;DHT22;11432;46.924;7.114;2023-01-28T18:24:10;1.00;99.90
22532;DHT22;11432;46.924;7.114;2023-01-28T18:26:36;1.00;99.90